sensor_id;sensor_type;location;lat;lon;timestamp;P1;durP1;ratioP1;P2;durP2;ratioP2
52620;SDS011;38515;53.160;6.990;2023-09-07T00:00:58;247.68;;;234.07;;
52620;SDS011;38515;53.160;6.990;2023-09-07T00:03:25;251.20;;;237.30;;
52620;SDS011;38515;53.160;6.990;2023-09-07T00:05:50;205.23;;;194.82;;
52620;SDS011;38515;53.160;6.990;2023-09-07T00:08:16;327.05;;;307.70;;
52620;SDS011;38515;53.160;6.990;2023-09-07T00:10:42;293.08;;;276.30;;
52620;SDS011;38515;53.160;6.990;2023-09-07T00:13:08;234.45;;;221.93;;
52620;SDS011;38515;53.160;6.990;2023-09-07T00:15:37;277.52;;;261.83;;
52620;SDS011;38515;53.160;6.990;2023-09-07T00:18:04;333.13;;;312.80;;
52620;SDS011;38515;53.160;6.990;2023-09-07T00:20:32;360.15;;;337.42;;
52620;SDS011;38515;53.160;6.990;2023-09-07T00:22:58;356.20;;;333.77;;
52620;SDS011;38515;53.160;6.990;2023-09-07T00:25:25;266.40;;;251.93;;
52620;SDS011;38515;53.160;6.990;2023-09-07T00:27:51;265.52;;;251.50;;
52620;SDS011;38515;53.160;6.990;2023-09-07T00:30:17;272.85;;;258.05;;
52620;SDS011;38515;53.160;6.990;2023-09-07T00:32:43;305.35;;;289.55;;
52620;SDS011;38515;53.160;6.990;2023-09-07T00:35:09;270.65;;;256.63;;
52620;SDS011;38515;53.160;6.990;2023-09-07T00:37:36;250.00;;;237.18;;
52620;SDS011;38515;53.160;6.990;2023-09-07T00:40:02;230.45;;;218.65;;
52620;SDS011;38515;53.160;6.990;2023-09-07T00:42:29;264.25;;;251.13;;
52620;SDS011;38515;53.160;6.990;2023-09-07T00:44:55;252.77;;;240.18;;
52620;SDS011;38515;53.160;6.990;2023-09-07T00:47:21;257.95;;;245.20;;
52620;SDS011;38515;53.160;6.990;2023-09-07T00:49:48;192.80;;;182.95;;
52620;SDS011;38515;53.160;6.990;2023-09-07T00:52:14;257.70;;;244.75;;
52620;SDS011;38515;53.160;6.990;2023-09-07T00:54:40;250.18;;;237.93;;
52620;SDS011;38515;53.160;6.990;2023-09-07T00:57:07;269.65;;;256.20;;
52620;SDS011;38515;53.160;6.990;2023-09-07T00:59:33;183.25;;;174.68;;
52620;SDS011;38515;53.160;6.990;2023-09-07T01:02:02;162.95;;;154.88;;
52620;SDS011;38515;53.160;6.990;2023-09-07T01:04:31;145.35;;;138.10;;
52620;SDS011;38515;53.160;6.990;2023-09-07T01:07:59;146.63;;;139.48;;
52620;SDS011;38515;53.160;6.990;2023-09-07T01:10:12;128.13;;;121.82;;
52620;SDS011;38515;53.160;6.990;2023-09-07T01:12:39;153.88;;;145.65;;
52620;SDS011;38515;53.160;6.990;2023-09-07T01:15:06;147.23;;;139.90;;
52620;SDS011;38515;53.160;6.990;2023-09-07T01:17:32;166.23;;;157.68;;
52620;SDS011;38515;53.160;6.990;2023-09-07T01:19:59;173.88;;;165.25;;
52620;SDS011;38515;53.160;6.990;2023-09-07T01:22:35;168.00;;;159.25;;
52620;SDS011;38515;53.160;6.990;2023-09-07T01:25:02;210.65;;;199.65;;
52620;SDS011;38515;53.160;6.990;2023-09-07T01:27:30;179.82;;;170.55;;
52620;SDS011;38515;53.160;6.990;2023-09-07T01:29:56;172.75;;;163.98;;
52620;SDS011;38515;53.160;6.990;2023-09-07T01:32:22;167.93;;;158.95;;
52620;SDS011;38515;53.160;6.990;2023-09-07T01:34:49;190.50;;;180.50;;
52620;SDS011;38515;53.160;6.990;2023-09-07T01:37:15;213.30;;;201.98;;
52620;SDS011;38515;53.160;6.990;2023-09-07T01:39:40;177.25;;;168.25;;
52620;SDS011;38515;53.160;6.990;2023-09-07T01:42:06;229.30;;;215.75;;
52620;SDS011;38515;53.160;6.990;2023-09-07T01:44:32;261.88;;;246.20;;
52620;SDS011;38515;53.160;6.990;2023-09-07T01:47:01;228.25;;;214.52;;
52620;SDS011;38515;53.160;6.990;2023-09-07T01:49:27;293.23;;;274.67;;
52620;SDS011;38515;53.160;6.990;2023-09-07T01:51:53;247.82;;;234.45;;
52620;SDS011;38515;53.160;6.990;2023-09-07T01:54:20;226.70;;;214.77;;
52620;SDS011;38515;53.160;6.990;2023-09-07T01:56:47;218.27;;;205.32;;
52620;SDS011;38515;53.160;6.990;2023-09-07T01:59:12;234.50;;;221.82;;
52620;SDS011;38515;53.160;6.990;2023-09-07T02:01:38;228.15;;;216.02;;
52620;SDS011;38515;53.160;6.990;2023-09-07T02:04:05;255.95;;;240.95;;
52620;SDS011;38515;53.160;6.990;2023-09-07T02:06:31;268.48;;;252.45;;
52620;SDS011;38515;53.160;6.990;2023-09-07T02:08:57;258.48;;;243.55;;
52620;SDS011;38515;53.160;6.990;2023-09-07T02:11:23;306.17;;;287.25;;
52620;SDS011;38515;53.160;6.990;2023-09-07T02:13:49;318.77;;;298.63;;
52620;SDS011;38515;53.160;6.990;2023-09-07T02:16:15;354.30;;;331.83;;
52620;SDS011;38515;53.160;6.990;2023-09-07T02:18:41;367.88;;;344.98;;
52620;SDS011;38515;53.160;6.990;2023-09-07T02:21:11;268.10;;;252.88;;
52620;SDS011;38515;53.160;6.990;2023-09-07T02:23:37;218.63;;;205.50;;
52620;SDS011;38515;53.160;6.990;2023-09-07T02:26:03;465.35;;;435.63;;
52620;SDS011;38515;53.160;6.990;2023-09-07T02:28:29;469.02;;;438.33;;
52620;SDS011;38515;53.160;6.990;2023-09-07T02:31:01;488.08;;;455.60;;
52620;SDS011;38515;53.160;6.990;2023-09-07T02:33:28;438.13;;;409.23;;
52620;SDS011;38515;53.160;6.990;2023-09-07T02:35:54;425.75;;;398.00;;
52620;SDS011;38515;53.160;6.990;2023-09-07T02:38:20;432.75;;;405.55;;
52620;SDS011;38515;53.160;6.990;2023-09-07T02:40:46;521.75;;;487.02;;
52620;SDS011;38515;53.160;6.990;2023-09-07T02:43:13;404.38;;;376.92;;
52620;SDS011;38515;53.160;6.990;2023-09-07T02:45:39;367.38;;;341.88;;
52620;SDS011;38515;53.160;6.990;2023-09-07T02:48:05;390.85;;;365.35;;
52620;SDS011;38515;53.160;6.990;2023-09-07T02:50:32;417.02;;;389.08;;
52620;SDS011;38515;53.160;6.990;2023-09-07T02:52:59;394.45;;;367.02;;
52620;SDS011;38515;53.160;6.990;2023-09-07T02:55:28;421.67;;;392.08;;
52620;SDS011;38515;53.160;6.990;2023-09-07T02:57:55;471.77;;;438.27;;
52620;SDS011;38515;53.160;6.990;2023-09-07T03:00:22;465.05;;;431.58;;
52620;SDS011;38515;53.160;6.990;2023-09-07T03:02:48;463.17;;;429.63;;
52620;SDS011;38515;53.160;6.990;2023-09-07T03:05:15;497.33;;;460.42;;
52620;SDS011;38515;53.160;6.990;2023-09-07T03:07:41;484.10;;;451.40;;
52620;SDS011;38515;53.160;6.990;2023-09-07T03:10:09;484.40;;;449.95;;
52620;SDS011;38515;53.160;6.990;2023-09-07T03:12:35;493.25;;;457.80;;
52620;SDS011;38515;53.160;6.990;2023-09-07T03:15:01;503.58;;;467.83;;
52620;SDS011;38515;53.160;6.990;2023-09-07T03:17:29;480.67;;;446.75;;
52620;SDS011;38515;53.160;6.990;2023-09-07T03:19:55;496.90;;;461.35;;
52620;SDS011;38515;53.160;6.990;2023-09-07T03:22:22;508.50;;;470.55;;
52620;SDS011;38515;53.160;6.990;2023-09-07T03:24:51;462.05;;;431.30;;
52620;SDS011;38515;53.160;6.990;2023-09-07T03:27:17;488.83;;;454.63;;
52620;SDS011;38515;53.160;6.990;2023-09-07T03:29:44;515.47;;;477.08;;
52620;SDS011;38515;53.160;6.990;2023-09-07T03:32:10;488.00;;;452.58;;
52620;SDS011;38515;53.160;6.990;2023-09-07T03:34:36;508.52;;;470.95;;
52620;SDS011;38515;53.160;6.990;2023-09-07T03:37:01;479.42;;;446.20;;
52620;SDS011;38515;53.160;6.990;2023-09-07T03:39:27;466.23;;;434.80;;
52620;SDS011;38515;53.160;6.990;2023-09-07T03:41:53;456.27;;;427.08;;
52620;SDS011;38515;53.160;6.990;2023-09-07T03:44:19;447.85;;;417.88;;
52620;SDS011;38515;53.160;6.990;2023-09-07T03:46:45;453.65;;;422.75;;
52620;SDS011;38515;53.160;6.990;2023-09-07T03:49:11;409.60;;;384.02;;
52620;SDS011;38515;53.160;6.990;2023-09-07T03:51:36;417.20;;;390.42;;
52620;SDS011;38515;53.160;6.990;2023-09-07T03:54:02;449.90;;;418.38;;
52620;SDS011;38515;53.160;6.990;2023-09-07T03:56:28;389.10;;;365.65;;
52620;SDS011;38515;53.160;6.990;2023-09-07T03:58:54;412.45;;;386.05;;
52620;SDS011;38515;53.160;6.990;2023-09-07T04:01:20;396.88;;;372.20;;
52620;SDS011;38515;53.160;6.990;2023-09-07T04:03:46;467.55;;;434.83;;
52620;SDS011;38515;53.160;6.990;2023-09-07T04:06:12;441.40;;;411.48;;
52620;SDS011;38515;53.160;6.990;2023-09-07T04:08:40;483.77;;;449.83;;
52620;SDS011;38515;53.160;6.990;2023-09-07T04:11:06;461.70;;;429.58;;
52620;SDS011;38515;53.160;6.990;2023-09-07T04:13:32;371.88;;;347.38;;
52620;SDS011;38515;53.160;6.990;2023-09-07T04:15:58;438.15;;;409.63;;
52620;SDS011;38515;53.160;6.990;2023-09-07T04:18:23;490.42;;;456.13;;
52620;SDS011;38515;53.160;6.990;2023-09-07T04:20:49;344.42;;;323.75;;
52620;SDS011;38515;53.160;6.990;2023-09-07T04:23:15;516.15;;;479.48;;
52620;SDS011;38515;53.160;6.990;2023-09-07T04:25:43;339.13;;;319.90;;
52620;SDS011;38515;53.160;6.990;2023-09-07T04:28:09;297.13;;;281.27;;
52620;SDS011;38515;53.160;6.990;2023-09-07T04:30:38;385.95;;;361.85;;
52620;SDS011;38515;53.160;6.990;2023-09-07T04:33:05;310.77;;;294.15;;
52620;SDS011;38515;53.160;6.990;2023-09-07T04:35:32;287.77;;;271.67;;
52620;SDS011;38515;53.160;6.990;2023-09-07T04:37:58;306.63;;;289.55;;
52620;SDS011;38515;53.160;6.990;2023-09-07T04:40:24;374.30;;;351.83;;
52620;SDS011;38515;53.160;6.990;2023-09-07T04:42:50;244.43;;;230.77;;
52620;SDS011;38515;53.160;6.990;2023-09-07T04:45:16;300.63;;;283.75;;
52620;SDS011;38515;53.160;6.990;2023-09-07T04:47:44;404.58;;;379.80;;
52620;SDS011;38515;53.160;6.990;2023-09-07T04:50:10;414.13;;;388.58;;
52620;SDS011;38515;53.160;6.990;2023-09-07T04:52:36;409.42;;;384.48;;
52620;SDS011;38515;53.160;6.990;2023-09-07T04:55:02;404.20;;;379.98;;
52620;SDS011;38515;53.160;6.990;2023-09-07T04:57:30;344.50;;;324.73;;
52620;SDS011;38515;53.160;6.990;2023-09-07T04:59:56;413.25;;;388.05;;
52620;SDS011;38515;53.160;6.990;2023-09-07T05:02:22;429.15;;;403.42;;
52620;SDS011;38515;53.160;6.990;2023-09-07T05:04:48;395.42;;;370.95;;
52620;SDS011;38515;53.160;6.990;2023-09-07T05:07:15;321.15;;;303.38;;
52620;SDS011;38515;53.160;6.990;2023-09-07T05:09:41;391.23;;;367.52;;
52620;SDS011;38515;53.160;6.990;2023-09-07T05:12:07;405.00;;;379.83;;
52620;SDS011;38515;53.160;6.990;2023-09-07T05:14:33;465.10;;;432.90;;
52620;SDS011;38515;53.160;6.990;2023-09-07T05:16:59;409.75;;;384.25;;
52620;SDS011;38515;53.160;6.990;2023-09-07T05:19:25;286.13;;;271.00;;
52620;SDS011;38515;53.160;6.990;2023-09-07T05:21:51;415.75;;;390.23;;
52620;SDS011;38515;53.160;6.990;2023-09-07T05:24:16;382.05;;;356.73;;
52620;SDS011;38515;53.160;6.990;2023-09-07T05:26:44;410.95;;;386.90;;
52620;SDS011;38515;53.160;6.990;2023-09-07T05:29:10;490.52;;;456.13;;
52620;SDS011;38515;53.160;6.990;2023-09-07T05:31:37;239.32;;;226.90;;
52620;SDS011;38515;53.160;6.990;2023-09-07T05:34:02;319.92;;;300.88;;
52620;SDS011;38515;53.160;6.990;2023-09-07T05:36:28;449.58;;;420.27;;
52620;SDS011;38515;53.160;6.990;2023-09-07T05:38:55;302.58;;;285.25;;
52620;SDS011;38515;53.160;6.990;2023-09-07T05:41:20;340.38;;;319.52;;
52620;SDS011;38515;53.160;6.990;2023-09-07T05:43:46;312.95;;;293.98;;
52620;SDS011;38515;53.160;6.990;2023-09-07T05:46:14;278.20;;;262.58;;
52620;SDS011;38515;53.160;6.990;2023-09-07T05:48:40;392.65;;;369.42;;
52620;SDS011;38515;53.160;6.990;2023-09-07T05:51:05;329.33;;;309.25;;
52620;SDS011;38515;53.160;6.990;2023-09-07T05:53:32;338.10;;;318.73;;
52620;SDS011;38515;53.160;6.990;2023-09-07T05:55:57;346.95;;;326.38;;
52620;SDS011;38515;53.160;6.990;2023-09-07T05:58:23;370.67;;;348.63;;
52620;SDS011;38515;53.160;6.990;2023-09-07T06:00:49;268.38;;;253.15;;
52620;SDS011;38515;53.160;6.990;2023-09-07T06:03:15;352.75;;;331.05;;
52620;SDS011;38515;53.160;6.990;2023-09-07T06:05:41;294.67;;;279.08;;
52620;SDS011;38515;53.160;6.990;2023-09-07T06:08:07;299.65;;;284.17;;
52620;SDS011;38515;53.160;6.990;2023-09-07T06:10:33;330.75;;;311.80;;
52620;SDS011;38515;53.160;6.990;2023-09-07T06:12:59;274.30;;;261.00;;
52620;SDS011;38515;53.160;6.990;2023-09-07T06:15:25;344.23;;;324.17;;
52620;SDS011;38515;53.160;6.990;2023-09-07T06:17:52;445.67;;;417.02;;
52620;SDS011;38515;53.160;6.990;2023-09-07T06:20:19;497.42;;;462.80;;
52620;SDS011;38515;53.160;6.990;2023-09-07T06:22:45;284.55;;;268.70;;
52620;SDS011;38515;53.160;6.990;2023-09-07T06:25:11;246.40;;;232.77;;
52620;SDS011;38515;53.160;6.990;2023-09-07T06:27:37;129.43;;;123.45;;
52620;SDS011;38515;53.160;6.990;2023-09-07T06:30:04;182.95;;;173.98;;
52620;SDS011;38515;53.160;6.990;2023-09-07T06:32:31;139.65;;;132.98;;
52620;SDS011;38515;53.160;6.990;2023-09-07T06:34:57;350.50;;;330.27;;
52620;SDS011;38515;53.160;6.990;2023-09-07T06:37:23;415.17;;;389.05;;
52620;SDS011;38515;53.160;6.990;2023-09-07T06:39:50;350.63;;;331.55;;
52620;SDS011;38515;53.160;6.990;2023-09-07T06:42:16;376.02;;;354.48;;
52620;SDS011;38515;53.160;6.990;2023-09-07T06:44:42;460.10;;;430.45;;
52620;SDS011;38515;53.160;6.990;2023-09-07T06:47:08;521.72;;;484.50;;
52620;SDS011;38515;53.160;6.990;2023-09-07T06:49:34;603.25;;;560.38;;
52620;SDS011;38515;53.160;6.990;2023-09-07T06:51:59;504.25;;;471.48;;
52620;SDS011;38515;53.160;6.990;2023-09-07T06:54:28;539.08;;;499.50;;
52620;SDS011;38515;53.160;6.990;2023-09-07T06:56:55;472.17;;;441.23;;
52620;SDS011;38515;53.160;6.990;2023-09-07T06:59:21;362.27;;;339.17;;
52620;SDS011;38515;53.160;6.990;2023-09-07T07:01:46;418.48;;;393.92;;
52620;SDS011;38515;53.160;6.990;2023-09-07T07:04:12;439.67;;;414.45;;
52620;SDS011;38515;53.160;6.990;2023-09-07T07:06:38;353.80;;;333.40;;
52620;SDS011;38515;53.160;6.990;2023-09-07T07:09:05;199.88;;;187.48;;
52620;SDS011;38515;53.160;6.990;2023-09-07T07:11:31;211.07;;;199.63;;
52620;SDS011;38515;53.160;6.990;2023-09-07T07:13:57;412.95;;;389.85;;
52620;SDS011;38515;53.160;6.990;2023-09-07T07:16:22;375.90;;;354.30;;
52620;SDS011;38515;53.160;6.990;2023-09-07T07:18:49;412.77;;;389.60;;
52620;SDS011;38515;53.160;6.990;2023-09-07T07:21:14;255.38;;;242.15;;
52620;SDS011;38515;53.160;6.990;2023-09-07T07:23:40;351.25;;;330.30;;
52620;SDS011;38515;53.160;6.990;2023-09-07T07:26:06;322.33;;;303.65;;
52620;SDS011;38515;53.160;6.990;2023-09-07T07:28:34;225.30;;;212.88;;
52620;SDS011;38515;53.160;6.990;2023-09-07T07:31:06;267.75;;;252.77;;
52620;SDS011;38515;53.160;6.990;2023-09-07T07:33:34;264.67;;;250.48;;
52620;SDS011;38515;53.160;6.990;2023-09-07T07:36:00;342.40;;;321.73;;
52620;SDS011;38515;53.160;6.990;2023-09-07T07:38:26;410.13;;;386.33;;
52620;SDS011;38515;53.160;6.990;2023-09-07T07:40:52;402.13;;;380.40;;
52620;SDS011;38515;53.160;6.990;2023-09-07T07:43:18;356.05;;;335.70;;
52620;SDS011;38515;53.160;6.990;2023-09-07T07:45:44;349.20;;;329.55;;
52620;SDS011;38515;53.160;6.990;2023-09-07T07:48:10;312.13;;;294.98;;
52620;SDS011;38515;53.160;6.990;2023-09-07T07:50:39;449.15;;;422.40;;
52620;SDS011;38515;53.160;6.990;2023-09-07T07:53:06;432.30;;;407.92;;
52620;SDS011;38515;53.160;6.990;2023-09-07T07:55:35;361.90;;;342.25;;
52620;SDS011;38515;53.160;6.990;2023-09-07T07:58:06;471.00;;;442.60;;
52620;SDS011;38515;53.160;6.990;2023-09-07T08:00:38;465.02;;;436.80;;
52620;SDS011;38515;53.160;6.990;2023-09-07T08:03:06;464.17;;;435.95;;
52620;SDS011;38515;53.160;6.990;2023-09-07T08:05:32;424.70;;;399.27;;
52620;SDS011;38515;53.160;6.990;2023-09-07T08:07:58;429.63;;;404.23;;
52620;SDS011;38515;53.160;6.990;2023-09-07T08:10:24;395.52;;;372.48;;
52620;SDS011;38515;53.160;6.990;2023-09-07T08:12:54;356.70;;;336.33;;
52620;SDS011;38515;53.160;6.990;2023-09-07T08:15:20;419.42;;;394.95;;
52620;SDS011;38515;53.160;6.990;2023-09-07T08:17:48;449.48;;;420.27;;
52620;SDS011;38515;53.160;6.990;2023-09-07T08:20:15;361.88;;;340.85;;
52620;SDS011;38515;53.160;6.990;2023-09-07T08:22:41;365.65;;;344.00;;
52620;SDS011;38515;53.160;6.990;2023-09-07T08:25:08;397.92;;;374.52;;
52620;SDS011;38515;53.160;6.990;2023-09-07T08:27:38;349.77;;;329.55;;
52620;SDS011;38515;53.160;6.990;2023-09-07T08:30:04;376.23;;;355.60;;
52620;SDS011;38515;53.160;6.990;2023-09-07T08:32:31;294.10;;;277.55;;
52620;SDS011;38515;53.160;6.990;2023-09-07T08:34:57;402.75;;;379.17;;
52620;SDS011;38515;53.160;6.990;2023-09-07T08:37:26;425.20;;;400.50;;
52620;SDS011;38515;53.160;6.990;2023-09-07T08:39:54;402.00;;;378.88;;
52620;SDS011;38515;53.160;6.990;2023-09-07T08:42:20;263.88;;;248.43;;
52620;SDS011;38515;53.160;6.990;2023-09-07T08:44:46;463.33;;;435.17;;
52620;SDS011;38515;53.160;6.990;2023-09-07T08:47:16;340.88;;;322.45;;
52620;SDS011;38515;53.160;6.990;2023-09-07T08:49:44;285.73;;;270.98;;
52620;SDS011;38515;53.160;6.990;2023-09-07T08:52:11;295.83;;;280.23;;
52620;SDS011;38515;53.160;6.990;2023-09-07T08:54:41;282.15;;;267.90;;
52620;SDS011;38515;53.160;6.990;2023-09-07T08:57:09;386.45;;;363.80;;
52620;SDS011;38515;53.160;6.990;2023-09-07T08:59:36;406.63;;;384.23;;
52620;SDS011;38515;53.160;6.990;2023-09-07T09:02:02;372.25;;;351.58;;
52620;SDS011;38515;53.160;6.990;2023-09-07T09:04:30;294.38;;;279.80;;
52620;SDS011;38515;53.160;6.990;2023-09-07T09:06:56;303.98;;;288.27;;
52620;SDS011;38515;53.160;6.990;2023-09-07T09:09:23;311.80;;;294.85;;
52620;SDS011;38515;53.160;6.990;2023-09-07T09:11:50;319.63;;;302.35;;
52620;SDS011;38515;53.160;6.990;2023-09-07T09:14:17;290.40;;;276.13;;
52620;SDS011;38515;53.160;6.990;2023-09-07T09:16:52;351.20;;;332.75;;
52620;SDS011;38515;53.160;6.990;2023-09-07T09:19:18;345.80;;;327.65;;
52620;SDS011;38515;53.160;6.990;2023-09-07T09:21:44;340.25;;;322.10;;
52620;SDS011;38515;53.160;6.990;2023-09-07T09:24:11;155.93;;;148.95;;
52620;SDS011;38515;53.160;6.990;2023-09-07T09:26:39;193.35;;;183.93;;
52620;SDS011;38515;53.160;6.990;2023-09-07T09:29:05;156.90;;;149.38;;
52620;SDS011;38515;53.160;6.990;2023-09-07T09:31:31;146.35;;;139.50;;
52620;SDS011;38515;53.160;6.990;2023-09-07T09:33:57;94.30;;;89.63;;
52620;SDS011;38515;53.160;6.990;2023-09-07T09:36:23;121.22;;;114.88;;
52620;SDS011;38515;53.160;6.990;2023-09-07T09:38:57;113.07;;;107.72;;
52620;SDS011;38515;53.160;6.990;2023-09-07T09:41:23;65.80;;;62.58;;
52620;SDS011;38515;53.160;6.990;2023-09-07T09:43:51;92.50;;;88.15;;
52620;SDS011;38515;53.160;6.990;2023-09-07T09:46:18;77.03;;;73.38;;
52620;SDS011;38515;53.160;6.990;2023-09-07T09:48:44;55.40;;;52.53;;
52620;SDS011;38515;53.160;6.990;2023-09-07T09:51:10;13.40;;;12.30;;
52620;SDS011;38515;53.160;6.990;2023-09-07T09:53:37;17.45;;;16.15;;
52620;SDS011;38515;53.160;6.990;2023-09-07T09:56:04;16.08;;;14.75;;
52620;SDS011;38515;53.160;6.990;2023-09-07T09:58:29;12.90;;;11.93;;
52620;SDS011;38515;53.160;6.990;2023-09-07T10:00:58;15.88;;;14.15;;
52620;SDS011;38515;53.160;6.990;2023-09-07T10:03:29;18.92;;;17.40;;
52620;SDS011;38515;53.160;6.990;2023-09-07T10:06:08;18.00;;;16.80;;
52620;SDS011;38515;53.160;6.990;2023-09-07T10:08:39;14.45;;;13.13;;
52620;SDS011;38515;53.160;6.990;2023-09-07T10:11:08;26.73;;;25.25;;
52620;SDS011;38515;53.160;6.990;2023-09-07T10:13:34;34.30;;;32.55;;
52620;SDS011;38515;53.160;6.990;2023-09-07T10:16:01;36.80;;;34.85;;
52620;SDS011;38515;53.160;6.990;2023-09-07T10:18:36;60.72;;;57.67;;
52620;SDS011;38515;53.160;6.990;2023-09-07T10:21:03;117.10;;;111.95;;
52620;SDS011;38515;53.160;6.990;2023-09-07T10:26:10;55.53;;;52.97;;
52620;SDS011;38515;53.160;6.990;2023-09-07T10:28:37;71.95;;;68.32;;
52620;SDS011;38515;53.160;6.990;2023-09-07T10:31:04;28.38;;;27.00;;
52620;SDS011;38515;53.160;6.990;2023-09-07T10:33:33;65.78;;;62.60;;
52620;SDS011;38515;53.160;6.990;2023-09-07T10:36:00;128.13;;;122.30;;
52620;SDS011;38515;53.160;6.990;2023-09-07T10:38:27;66.22;;;63.28;;
52620;SDS011;38515;53.160;6.990;2023-09-07T10:40:56;44.25;;;42.03;;
52620;SDS011;38515;53.160;6.990;2023-09-07T10:43:25;72.95;;;69.68;;
52620;SDS011;38515;53.160;6.990;2023-09-07T10:45:51;87.85;;;83.90;;
52620;SDS011;38515;53.160;6.990;2023-09-07T10:48:21;61.40;;;58.17;;
52620;SDS011;38515;53.160;6.990;2023-09-07T10:50:47;136.25;;;130.63;;
52620;SDS011;38515;53.160;6.990;2023-09-07T10:53:14;61.30;;;58.20;;
52620;SDS011;38515;53.160;6.990;2023-09-07T10:55:42;47.03;;;44.50;;
52620;SDS011;38515;53.160;6.990;2023-09-07T10:58:09;49.70;;;47.28;;
52620;SDS011;38515;53.160;6.990;2023-09-07T11:00:35;137.38;;;131.20;;
52620;SDS011;38515;53.160;6.990;2023-09-07T11:03:09;40.20;;;38.33;;
52620;SDS011;38515;53.160;6.990;2023-09-07T11:08:03;79.05;;;75.20;;
52620;SDS011;38515;53.160;6.990;2023-09-07T11:10:34;108.55;;;103.72;;
52620;SDS011;38515;53.160;6.990;2023-09-07T11:13:04;130.85;;;125.15;;
52620;SDS011;38515;53.160;6.990;2023-09-07T11:15:32;35.78;;;33.90;;
52620;SDS011;38515;53.160;6.990;2023-09-07T11:18:04;155.30;;;148.57;;
52620;SDS011;38515;53.160;6.990;2023-09-07T11:20:32;166.18;;;159.07;;
52620;SDS011;38515;53.160;6.990;2023-09-07T11:22:58;78.13;;;74.72;;
52620;SDS011;38515;53.160;6.990;2023-09-07T11:25:25;132.32;;;126.43;;
52620;SDS011;38515;53.160;6.990;2023-09-07T11:27:51;91.32;;;87.43;;
52620;SDS011;38515;53.160;6.990;2023-09-07T11:30:23;54.35;;;52.00;;
52620;SDS011;38515;53.160;6.990;2023-09-07T11:32:49;169.38;;;160.82;;
52620;SDS011;38515;53.160;6.990;2023-09-07T11:35:15;48.70;;;46.22;;
52620;SDS011;38515;53.160;6.990;2023-09-07T11:37:41;81.10;;;77.55;;
52620;SDS011;38515;53.160;6.990;2023-09-07T11:40:08;94.30;;;90.20;;
52620;SDS011;38515;53.160;6.990;2023-09-07T11:42:40;133.07;;;127.50;;
52620;SDS011;38515;53.160;6.990;2023-09-07T11:45:06;214.05;;;203.45;;
52620;SDS011;38515;53.160;6.990;2023-09-07T11:47:34;66.72;;;63.50;;
52620;SDS011;38515;53.160;6.990;2023-09-07T11:50:00;24.17;;;22.58;;
52620;SDS011;38515;53.160;6.990;2023-09-07T11:52:27;30.52;;;29.02;;
52620;SDS011;38515;53.160;6.990;2023-09-07T11:54:52;9.98;;;9.18;;
52620;SDS011;38515;53.160;6.990;2023-09-07T11:57:21;49.80;;;47.50;;
52620;SDS011;38515;53.160;6.990;2023-09-07T11:59:47;27.90;;;26.33;;
52620;SDS011;38515;53.160;6.990;2023-09-07T12:02:13;87.40;;;83.65;;
52620;SDS011;38515;53.160;6.990;2023-09-07T12:04:40;201.25;;;192.55;;
52620;SDS011;38515;53.160;6.990;2023-09-07T12:07:06;47.92;;;45.53;;
52620;SDS011;38515;53.160;6.990;2023-09-07T12:09:32;28.20;;;26.45;;
52620;SDS011;38515;53.160;6.990;2023-09-07T12:11:57;18.05;;;16.83;;
52620;SDS011;38515;53.160;6.990;2023-09-07T12:14:23;36.63;;;34.88;;
52620;SDS011;38515;53.160;6.990;2023-09-07T12:16:49;80.93;;;77.38;;
52620;SDS011;38515;53.160;6.990;2023-09-07T12:19:15;22.05;;;20.90;;
52620;SDS011;38515;53.160;6.990;2023-09-07T12:21:42;12.30;;;11.32;;
52620;SDS011;38515;53.160;6.990;2023-09-07T12:24:08;75.28;;;71.85;;
52620;SDS011;38515;53.160;6.990;2023-09-07T12:26:34;16.02;;;15.02;;
52620;SDS011;38515;53.160;6.990;2023-09-07T12:29:00;282.45;;;270.40;;
52620;SDS011;38515;53.160;6.990;2023-09-07T12:31:25;31.55;;;29.88;;
52620;SDS011;38515;53.160;6.990;2023-09-07T12:33:51;16.20;;;15.07;;
52620;SDS011;38515;53.160;6.990;2023-09-07T12:36:17;12.45;;;11.65;;
52620;SDS011;38515;53.160;6.990;2023-09-07T12:38:43;19.60;;;18.40;;
52620;SDS011;38515;53.160;6.990;2023-09-07T12:41:09;8.77;;;8.07;;
52620;SDS011;38515;53.160;6.990;2023-09-07T12:43:35;7.97;;;5.32;;
52620;SDS011;38515;53.160;6.990;2023-09-07T12:46:01;8.80;;;8.05;;
52620;SDS011;38515;53.160;6.990;2023-09-07T12:48:27;11.35;;;10.45;;
52620;SDS011;38515;53.160;6.990;2023-09-07T12:50:53;6.35;;;4.95;;
52620;SDS011;38515;53.160;6.990;2023-09-07T12:53:20;7.78;;;7.07;;
52620;SDS011;38515;53.160;6.990;2023-09-07T12:55:50;9.27;;;7.90;;
52620;SDS011;38515;53.160;6.990;2023-09-07T12:58:17;5.32;;;4.82;;
52620;SDS011;38515;53.160;6.990;2023-09-07T13:00:43;8.20;;;7.40;;
52620;SDS011;38515;53.160;6.990;2023-09-07T13:03:09;17.92;;;16.95;;
52620;SDS011;38515;53.160;6.990;2023-09-07T13:05:36;8.30;;;7.60;;
52620;SDS011;38515;53.160;6.990;2023-09-07T13:08:04;5.78;;;5.13;;
52620;SDS011;38515;53.160;6.990;2023-09-07T13:10:34;16.92;;;15.90;;
52620;SDS011;38515;53.160;6.990;2023-09-07T13:13:01;11.80;;;11.10;;
52620;SDS011;38515;53.160;6.990;2023-09-07T13:15:27;7.18;;;6.57;;
52620;SDS011;38515;53.160;6.990;2023-09-07T13:17:53;5.75;;;5.20;;
52620;SDS011;38515;53.160;6.990;2023-09-07T13:20:19;6.88;;;4.18;;
52620;SDS011;38515;53.160;6.990;2023-09-07T13:22:45;5.03;;;4.40;;
52620;SDS011;38515;53.160;6.990;2023-09-07T13:25:14;5.68;;;3.90;;
52620;SDS011;38515;53.160;6.990;2023-09-07T13:27:40;5.28;;;4.78;;
52620;SDS011;38515;53.160;6.990;2023-09-07T13:30:06;6.53;;;5.72;;
52620;SDS011;38515;53.160;6.990;2023-09-07T13:32:37;6.03;;;4.85;;
52620;SDS011;38515;53.160;6.990;2023-09-07T13:35:04;5.95;;;5.13;;
52620;SDS011;38515;53.160;6.990;2023-09-07T13:37:30;6.78;;;4.70;;
52620;SDS011;38515;53.160;6.990;2023-09-07T13:39:56;7.50;;;4.78;;
52620;SDS011;38515;53.160;6.990;2023-09-07T13:42:22;6.95;;;5.07;;
52620;SDS011;38515;53.160;6.990;2023-09-07T13:44:48;6.65;;;4.18;;
52620;SDS011;38515;53.160;6.990;2023-09-07T13:47:14;7.75;;;7.13;;
52620;SDS011;38515;53.160;6.990;2023-09-07T13:49:40;10.13;;;5.97;;
52620;SDS011;38515;53.160;6.990;2023-09-07T13:52:06;5.57;;;4.57;;
52620;SDS011;38515;53.160;6.990;2023-09-07T13:54:32;7.13;;;4.60;;
52620;SDS011;38515;53.160;6.990;2023-09-07T13:56:58;5.03;;;4.28;;
52620;SDS011;38515;53.160;6.990;2023-09-07T13:59:24;7.82;;;3.65;;
52620;SDS011;38515;53.160;6.990;2023-09-07T14:01:53;5.85;;;5.13;;
52620;SDS011;38515;53.160;6.990;2023-09-07T14:04:19;4.75;;;4.10;;
52620;SDS011;38515;53.160;6.990;2023-09-07T14:06:45;4.53;;;3.90;;
52620;SDS011;38515;53.160;6.990;2023-09-07T14:09:12;10.43;;;8.60;;